createdAt,value
2023-07-25T00:03:59.223Z,56.55
2023-07-25T00:12:22.763Z,56.51
2023-07-25T00:20:45.810Z,56.34
2023-07-25T00:29:08.922Z,56.55
2023-07-25T00:37:32.211Z,56.65
2023-07-25T00:45:56.095Z,56.51
2023-07-25T00:54:23.478Z,56.55
2023-07-25T01:02:47.108Z,56.80
2023-07-25T01:11:10.607Z,56.80
2023-07-25T01:19:35.533Z,56.74
2023-07-25T01:27:58.636Z,56.81
2023-07-25T01:36:21.961Z,57.09
2023-07-25T01:44:45.600Z,56.83
2023-07-25T01:53:08.637Z,56.76
2023-07-25T02:01:32.393Z,57.10
2023-07-25T02:09:56.456Z,57.06
2023-07-25T02:18:19.653Z,57.15
2023-07-25T02:26:42.858Z,57.12
2023-07-25T02:35:06.543Z,57.12
2023-07-25T02:43:29.860Z,57.05
2023-07-25T02:51:52.983Z,57.06
2023-07-25T03:00:16.256Z,57.20
2023-07-25T03:08:39.312Z,57.31
2023-07-25T03:17:02.410Z,57.22
2023-07-25T03:25:25.564Z,57.40
2023-07-25T03:33:48.603Z,57.23
2023-07-25T03:42:11.790Z,57.48
2023-07-25T03:50:34.841Z,57.45
2023-07-25T03:58:59.379Z,57.69
2023-07-25T04:07:22.410Z,57.75
2023-07-25T04:15:45.403Z,57.87
2023-07-25T04:24:08.487Z,57.98
2023-07-25T04:32:31.703Z,58.06
2023-07-25T04:40:54.777Z,58.28
2023-07-25T04:49:18.386Z,58.33
2023-07-25T04:57:42.585Z,58.46
2023-07-25T05:06:05.712Z,58.37
2023-07-25T05:14:28.726Z,58.59
2023-07-25T05:22:51.760Z,58.81
2023-07-25T05:31:14.846Z,58.94
2023-07-25T05:39:37.935Z,59.14
2023-07-25T05:48:02.712Z,59.14
2023-07-25T05:56:26.601Z,59.10
2023-07-25T06:04:50.423Z,59.28
2023-07-25T06:13:14.431Z,59.25
2023-07-25T06:21:38.125Z,59.63
2023-07-25T06:30:06.127Z,59.66
2023-07-25T06:38:30.104Z,59.87
2023-07-25T06:46:53.458Z,59.94
2023-07-25T06:55:23.160Z,59.96
2023-07-25T07:03:46.162Z,60.20
2023-07-25T07:12:09.827Z,60.30
2023-07-25T07:20:32.879Z,60.29
2023-07-25T07:28:56.147Z,60.33
2023-07-25T07:37:19.407Z,60.67
2023-07-25T07:45:42.406Z,60.63
2023-07-25T07:54:05.892Z,60.74
2023-07-25T08:02:29.052Z,60.91
2023-07-25T08:10:52.120Z,60.99
2023-07-25T08:19:15.133Z,60.99
2023-07-25T08:27:38.480Z,60.93
2023-07-25T08:36:02.951Z,61.07
2023-07-25T08:44:28.021Z,61.11
2023-07-25T08:52:54.323Z,61.10
2023-07-25T09:01:19.204Z,61.13
2023-07-25T09:09:42.710Z,61.12
2023-07-25T09:18:05.798Z,61.12
2023-07-25T09:26:31.606Z,61.14
2023-07-25T09:34:58.028Z,61.27
2023-07-25T09:43:23.997Z,61.18
2023-07-25T09:52:02.061Z,61.14
2023-07-25T10:00:25.523Z,61.07
2023-07-25T10:08:49.746Z,61.10
2023-07-25T10:17:12.972Z,61.11
2023-07-25T10:25:36.600Z,60.95
2023-07-25T10:34:01.494Z,60.89
2023-07-25T10:42:51.713Z,60.94
2023-07-25T10:51:24.869Z,60.95
2023-07-25T11:00:11.220Z,60.88
2023-07-25T11:08:40.238Z,60.85
2023-07-25T11:17:05.048Z,60.91
2023-07-25T11:25:28.162Z,60.51
2023-07-25T11:33:51.150Z,60.57
2023-07-25T11:42:14.272Z,60.65
2023-07-25T11:50:38.668Z,60.32
2023-07-25T11:59:04.128Z,60.50
2023-07-25T12:07:27.172Z,60.38
2023-07-25T12:15:56.169Z,60.49
2023-07-25T12:24:19.424Z,60.18
2023-07-25T12:32:42.603Z,60.01
2023-07-25T12:41:05.716Z,60.20
2023-07-25T12:49:29.637Z,60.01
2023-07-25T12:57:52.731Z,60.13
2023-07-25T13:06:15.804Z,60.05
2023-07-25T13:14:38.923Z,59.87
2023-07-25T13:23:02.014Z,59.70
2023-07-25T13:31:25.305Z,59.58
2023-07-25T13:39:49.026Z,59.49
2023-07-25T13:48:12.704Z,59.47
2023-07-25T13:56:35.709Z,59.39
2023-07-25T14:04:58.967Z,59.55
2023-07-25T14:13:23.827Z,59.37
2023-07-25T14:21:46.943Z,59.17
2023-07-25T14:30:11.320Z,59.34
2023-07-25T14:38:34.403Z,59.02
2023-07-25T14:46:57.435Z,59.24
2023-07-25T14:55:21.130Z,59.01
2023-07-25T15:03:44.542Z,58.87
2023-07-25T15:12:07.897Z,58.80
2023-07-25T15:20:30.992Z,58.61
2023-07-25T15:28:54.639Z,58.66
2023-07-25T15:37:17.782Z,58.41
2023-07-25T15:45:41.387Z,58.32
2023-07-25T15:54:04.410Z,58.31
2023-07-25T16:02:27.560Z,58.28
2023-07-25T16:10:52.440Z,58.05
2023-07-25T16:19:17.140Z,57.99
2023-07-25T16:27:40.147Z,57.73
2023-07-25T16:36:03.263Z,57.69
2023-07-25T16:44:26.270Z,57.54
2023-07-25T16:52:49.972Z,57.39
2023-07-25T17:01:13.192Z,57.32
2023-07-25T17:09:36.258Z,57.27
2023-07-25T17:17:59.345Z,57.29
2023-07-25T17:26:22.399Z,57.15
2023-07-25T17:34:45.448Z,57.02
2023-07-25T17:43:08.679Z,57.11
2023-07-25T17:51:32.008Z,57.13
2023-07-25T17:59:55.986Z,56.93
2023-07-25T18:08:18.996Z,57.09
2023-07-25T18:16:41.990Z,57.00
2023-07-25T18:25:06.369Z,56.78
2023-07-25T18:33:29.883Z,56.69
2023-07-25T18:41:54.571Z,56.86
2023-07-25T18:50:19.175Z,56.88
2023-07-25T18:58:42.314Z,56.70
2023-07-25T19:07:05.790Z,56.86
2023-07-25T19:15:28.785Z,56.79
2023-07-25T19:23:54.303Z,56.76
2023-07-25T19:32:18.606Z,56.84
2023-07-25T19:40:41.755Z,56.69
2023-07-25T19:49:04.760Z,56.96
2023-07-25T19:57:27.861Z,56.91
2023-07-25T20:05:50.892Z,56.77
2023-07-25T20:14:14.470Z,57.07
2023-07-25T20:22:37.587Z,56.91
2023-07-25T20:31:00.980Z,57.03
2023-07-25T20:39:24.073Z,56.98
2023-07-25T20:47:48.730Z,57.14
2023-07-25T20:56:11.799Z,57.06
2023-07-25T21:04:34.927Z,57.22
2023-07-25T21:12:58.005Z,57.11
2023-07-25T21:21:21.227Z,57.11
2023-07-25T21:29:44.794Z,57.21
2023-07-25T21:38:08.090Z,57.05
2023-07-25T21:46:32.910Z,57.13
2023-07-25T21:54:56.709Z,57.39
2023-07-25T22:03:22.193Z,57.43
2023-07-25T22:11:46.799Z,57.40
2023-07-25T22:20:10.709Z,57.38
2023-07-25T22:28:33.840Z,57.41
2023-07-25T22:36:56.801Z,57.42
2023-07-25T22:45:20.299Z,57.50
2023-07-25T22:53:43.284Z,57.64
2023-07-25T23:02:07.715Z,57.51
2023-07-25T23:10:31.002Z,57.55
2023-07-25T23:18:54.954Z,57.63
2023-07-25T23:27:17.968Z,57.71
2023-07-25T23:35:41.141Z,57.64
2023-07-25T23:44:04.317Z,57.78
2023-07-25T23:52:27.284Z,57.65
